createdAt,value
2018-04-01T08:10:14.194Z,2.55
2018-04-01T08:12:41.237Z,2.59
2018-04-01T08:15:09.395Z,2.54
2018-04-01T08:17:36.678Z,2.69
2018-04-01T08:20:03.733Z,2.86
2018-04-01T08:22:30.909Z,2.77
2018-04-01T08:24:57.991Z,2.79
2018-04-01T08:27:25.091Z,2.73
2018-04-01T08:29:52.200Z,2.90
2018-04-01T08:32:19.243Z,2.89
2018-04-01T08:34:46.320Z,3.03
2018-04-01T08:37:13.371Z,3.03
2018-04-01T08:39:40.480Z,3.05
2018-04-01T08:42:07.571Z,3.11
2018-04-01T08:44:34.691Z,3.04
2018-04-01T08:47:01.740Z,3.14
2018-04-01T08:49:29.935Z,2.96
2018-04-01T08:51:56.975Z,3.00
2018-04-01T08:54:24.008Z,3.02
2018-04-01T08:56:51.066Z,3.08
2018-04-01T08:59:18.291Z,3.37
2018-04-01T09:01:45.314Z,3.51
2018-04-01T09:04:12.383Z,3.48
2018-04-01T09:06:39.449Z,3.51
2018-04-01T09:09:06.525Z,3.62
2018-04-01T09:11:33.630Z,3.67
2018-04-01T09:14:00.691Z,3.33
2018-04-01T09:16:27.803Z,3.27
2018-04-01T09:18:54.871Z,3.49
2018-04-01T09:21:21.911Z,3.41
2018-04-01T09:23:48.948Z,3.30
2018-04-01T09:26:15.991Z,3.30
2018-04-01T09:28:45.148Z,3.38
2018-04-01T09:31:12.206Z,3.40
2018-04-01T09:33:39.299Z,3.41
2018-04-01T09:36:08.672Z,3.28
2018-04-01T09:38:35.785Z,3.16
2018-04-01T09:41:03.587Z,3.13
2018-04-01T09:43:30.659Z,3.15
2018-04-01T09:45:57.758Z,3.03
2018-04-01T09:48:25.052Z,3.09
2018-04-01T09:50:52.571Z,3.20
2018-04-01T09:53:19.751Z,3.10
2018-04-01T09:55:46.888Z,3.15
2018-04-01T09:58:14.081Z,3.11
2018-04-01T10:03:03.243Z,3.14
2018-04-01T10:05:31.230Z,3.06
2018-04-01T10:07:58.976Z,3.08
2018-04-01T10:10:26.610Z,3.01
2018-04-01T10:13:01.033Z,3.01
2018-04-01T10:15:30.080Z,3.04
2018-04-01T10:18:06.218Z,2.94
2018-04-01T10:20:33.814Z,2.95
2018-04-01T10:23:01.913Z,2.98
2018-04-01T10:25:29.559Z,2.98
2018-04-01T10:27:57.176Z,2.98
2018-04-01T10:30:25.623Z,3.11
2018-04-01T10:32:53.249Z,3.04
2018-04-01T10:35:20.898Z,3.18
2018-04-01T10:37:48.650Z,3.16
2018-04-01T10:40:16.448Z,3.09
2018-04-01T10:42:46.273Z,3.13
2018-04-01T10:45:13.986Z,3.09
2018-04-01T10:47:41.725Z,3.08
2018-04-01T10:50:09.418Z,3.08
2018-04-01T10:52:37.077Z,3.02
2018-04-01T10:55:04.292Z,3.03
2018-04-01T10:57:31.307Z,3.08
2018-04-01T10:59:58.455Z,3.10
2018-04-01T11:02:25.568Z,3.18
2018-04-01T11:04:52.738Z,3.19
2018-04-01T11:07:19.867Z,3.03
2018-04-01T11:09:47.016Z,3.06
2018-04-01T11:12:14.189Z,3.12
2018-04-01T11:14:41.238Z,3.03
2018-04-01T11:17:08.338Z,2.99
2018-04-01T11:19:35.439Z,3.13
2018-04-01T11:22:02.548Z,3.13
2018-04-01T11:24:29.728Z,3.14
2018-04-01T11:26:56.896Z,3.23
2018-04-01T11:29:23.998Z,3.31
2018-04-01T11:31:51.308Z,3.44
2018-04-01T11:34:18.368Z,3.45
2018-04-01T11:36:45.745Z,3.35
2018-04-01T11:39:12.787Z,3.37
2018-04-01T11:41:53.898Z,3.46
2018-04-01T11:44:21.928Z,3.31
2018-04-01T11:46:48.975Z,3.28
2018-04-01T11:49:17.224Z,3.30
2018-04-01T11:54:39.396Z,3.20
2018-04-01T11:57:06.488Z,3.34
2018-04-01T11:59:34.016Z,3.29
2018-04-01T12:02:01.191Z,3.28
2018-04-01T12:04:28.296Z,3.25
2018-04-01T12:06:55.366Z,3.09
2018-04-01T12:09:22.468Z,3.20
2018-04-01T12:11:49.541Z,3.28
2018-04-01T12:14:16.683Z,3.41
2018-04-01T12:16:43.728Z,3.25
2018-04-01T12:19:10.888Z,3.39
2018-04-01T12:21:37.938Z,3.52
2018-04-01T12:24:05.028Z,3.69
2018-04-01T12:26:32.240Z,3.81
2018-04-01T12:28:59.370Z,3.77
2018-04-01T12:31:26.539Z,4.10
2018-04-01T12:33:53.575Z,4.27
2018-04-01T12:36:20.611Z,4.42
2018-04-01T12:38:47.706Z,4.05
2018-04-01T12:41:14.776Z,4.15
2018-04-01T12:43:41.835Z,4.00
2018-04-01T12:46:14.841Z,3.86
2018-04-01T12:48:41.917Z,3.83
2018-04-01T12:51:09.030Z,3.94
2018-04-01T12:53:36.124Z,4.26
2018-04-01T12:56:03.165Z,4.26
2018-04-01T12:58:30.258Z,4.08
2018-04-01T13:00:57.300Z,4.27
2018-04-01T13:03:24.419Z,4.14
2018-04-01T13:05:51.456Z,3.92
2018-04-01T13:08:18.530Z,3.95
2018-04-01T13:10:45.586Z,3.91
2018-04-01T13:13:12.623Z,3.75
2018-04-01T13:15:39.705Z,3.74
2018-04-01T13:18:06.743Z,3.45
2018-04-01T13:20:33.814Z,3.40
2018-04-01T13:23:00.960Z,3.43
2018-04-01T13:25:28.117Z,3.49
2018-04-01T13:27:55.256Z,3.57
2018-04-01T13:30:22.320Z,3.59
2018-04-01T13:32:49.353Z,3.69
2018-04-01T13:35:16.455Z,3.57
2018-04-01T13:37:43.579Z,3.55
2018-04-01T13:40:10.620Z,3.51
2018-04-01T13:42:37.697Z,3.42
2018-04-01T13:45:04.724Z,3.49
2018-04-01T13:47:31.796Z,3.72
2018-04-01T13:49:58.877Z,3.79
2018-04-01T13:52:25.926Z,3.65
2018-04-01T13:54:53.939Z,3.56
2018-04-01T13:57:21.030Z,3.54
2018-04-01T13:59:48.079Z,3.41
2018-04-01T14:02:15.151Z,3.23
2018-04-01T14:04:42.202Z,3.32
2018-04-01T14:07:09.284Z,3.26
2018-04-01T14:09:36.404Z,3.18
2018-04-01T14:12:03.455Z,3.17
2018-04-01T14:14:30.532Z,3.10
2018-04-01T14:16:57.609Z,3.14
2018-04-01T14:19:24.687Z,2.93
2018-04-01T14:21:51.750Z,2.80
2018-04-01T14:24:18.790Z,2.86
2018-04-01T14:26:45.815Z,2.93
2018-04-01T14:29:12.851Z,3.01
2018-04-01T14:31:39.984Z,3.07
2018-04-01T14:34:07.039Z,2.98
2018-04-01T14:36:34.381Z,2.95
2018-04-01T14:39:01.433Z,2.78
2018-04-01T14:41:28.478Z,2.79
2018-04-01T14:43:55.530Z,2.78
2018-04-01T14:46:22.568Z,2.82
2018-04-01T14:48:49.614Z,2.83
2018-04-01T14:51:16.663Z,2.67
2018-04-01T14:53:43.862Z,2.56
2018-04-01T14:56:10.899Z,2.64
2018-04-01T14:58:38.069Z,2.56
2018-04-01T15:01:05.094Z,2.59
2018-04-01T15:03:32.128Z,2.61
2018-04-01T15:05:59.204Z,2.63
2018-04-01T15:08:26.243Z,2.56
2018-04-01T15:10:53.373Z,2.60
2018-04-01T15:13:21.236Z,2.61
2018-04-01T15:15:48.392Z,2.56
2018-04-01T15:18:15.467Z,2.63
2018-04-01T15:20:42.587Z,2.61
2018-04-01T15:23:09.619Z,2.61
2018-04-01T15:25:36.657Z,2.64
2018-04-01T15:28:04.192Z,2.49
2018-04-01T15:30:31.230Z,2.54
2018-04-01T15:32:58.276Z,2.55
2018-04-01T15:35:25.320Z,2.56
2018-04-01T15:37:52.359Z,2.40
2018-04-01T15:40:19.906Z,2.47
2018-04-01T15:42:47.000Z,2.32
2018-04-01T15:45:14.043Z,2.48
2018-04-01T15:47:41.115Z,2.36
2018-04-01T15:50:08.156Z,2.29
2018-04-01T15:52:35.191Z,2.36
2018-04-01T15:55:02.228Z,2.39
2018-04-01T15:57:29.272Z,2.42
2018-04-01T15:59:56.309Z,2.41
2018-04-01T16:02:23.374Z,2.39
2018-04-01T16:04:50.432Z,2.25
2018-04-01T16:07:17.653Z,2.21
2018-04-01T16:09:44.692Z,2.33
2018-04-01T16:12:11.867Z,2.31
2018-04-01T16:14:38.911Z,2.22
2018-04-01T16:17:06.163Z,2.16
2018-04-01T16:19:33.020Z,2.32
2018-04-01T16:22:00.127Z,2.26
2018-04-01T16:24:28.016Z,2.17
2018-04-01T16:26:55.056Z,2.16
2018-04-01T16:29:22.140Z,2.20
2018-04-01T16:31:49.180Z,2.43
2018-04-01T16:34:16.220Z,2.14
2018-04-01T16:36:43.251Z,2.41
2018-04-01T16:39:10.296Z,2.43
2018-04-01T16:41:37.334Z,2.48
2018-04-01T16:44:04.422Z,2.30
2018-04-01T16:46:31.820Z,2.19
2018-04-01T16:48:58.855Z,2.22
2018-04-01T16:51:25.937Z,2.36
2018-04-01T16:53:52.984Z,2.14
2018-04-01T16:56:20.834Z,2.18
2018-04-01T16:58:48.024Z,2.51
2018-04-01T17:01:15.187Z,2.33
2018-04-01T17:03:42.287Z,2.11
2018-04-01T17:06:09.856Z,2.30
2018-04-01T17:08:36.896Z,2.21
2018-04-01T17:11:03.979Z,2.26
2018-04-01T17:13:31.076Z,2.18
2018-04-01T17:15:58.167Z,2.22
2018-04-01T17:18:26.192Z,2.29
2018-04-01T17:20:53.232Z,2.45
2018-04-01T17:23:22.384Z,2.41
2018-04-01T17:25:49.479Z,2.52
2018-04-01T17:28:16.795Z,2.28
2018-04-01T17:30:44.127Z,2.24
2018-04-01T17:33:11.256Z,2.30
2018-04-01T17:35:38.452Z,2.42
2018-04-01T17:38:05.578Z,2.32
2018-04-01T17:40:32.668Z,2.37
2018-04-01T17:42:59.900Z,2.38
2018-04-01T17:45:27.078Z,2.23
2018-04-01T17:47:54.113Z,2.39
2018-04-01T17:50:21.159Z,2.24
2018-04-01T17:52:48.747Z,2.13
2018-04-01T17:55:16.757Z,2.22
2018-04-01T17:57:43.903Z,2.11
2018-04-01T18:00:10.952Z,2.19
2018-04-01T18:02:38.891Z,2.04
2018-04-01T18:05:05.940Z,2.07
2018-04-01T18:07:33.148Z,2.05
2018-04-01T18:10:00.284Z,1.99
2018-04-01T18:12:27.340Z,1.92
2018-04-01T18:14:54.939Z,1.88
2018-04-01T18:17:22.273Z,1.88
2018-04-01T18:19:49.510Z,1.90
2018-04-01T18:22:16.827Z,1.97
2018-04-01T18:24:45.037Z,2.08
2018-04-01T18:27:13.223Z,2.15
2018-04-01T18:29:41.402Z,2.07
2018-04-01T18:32:09.323Z,2.00
2018-04-01T18:34:37.693Z,1.95
2018-04-01T18:37:06.178Z,1.82
2018-04-01T18:39:33.728Z,1.82
2018-04-01T18:42:00.942Z,1.89
2018-04-01T18:44:28.503Z,1.87
2018-04-01T18:46:56.062Z,1.91
2018-04-01T18:49:23.929Z,1.86
2018-04-01T18:51:51.769Z,1.87
2018-04-01T18:54:18.949Z,1.98
2018-04-01T18:56:46.775Z,1.86
2018-04-01T18:59:14.273Z,1.87
2018-04-01T19:01:42.498Z,2.14
2018-04-01T19:04:10.631Z,2.10
2018-04-01T19:06:38.608Z,2.01
2018-04-01T19:09:06.415Z,2.09
2018-04-01T19:11:34.224Z,1.96
2018-04-01T19:14:02.148Z,2.19
2018-04-01T19:16:32.009Z,2.09
2018-04-01T19:19:01.060Z,2.03
2018-04-01T19:21:30.536Z,2.06
2018-04-01T19:23:59.255Z,2.07
2018-04-01T19:26:27.880Z,2.06
2018-04-01T19:28:56.719Z,2.10
2018-04-01T19:31:26.172Z,1.88
2018-04-01T19:33:55.712Z,2.02
2018-04-01T19:36:24.503Z,2.01
2018-04-01T19:38:53.150Z,1.90
2018-04-01T19:41:22.011Z,1.95
2018-04-01T19:43:50.605Z,1.84
2018-04-01T19:46:19.733Z,1.91
2018-04-01T19:48:48.479Z,1.90
2018-04-01T19:51:17.525Z,1.94
2018-04-01T19:53:47.456Z,1.98
2018-04-01T19:56:16.299Z,1.94
2018-04-01T19:58:46.031Z,1.99
2018-04-01T20:01:14.722Z,1.96
2018-04-01T20:03:43.551Z,1.94
2018-04-01T20:06:12.094Z,1.98
2018-04-01T20:08:40.782Z,1.96
2018-04-01T20:11:09.423Z,2.11
2018-04-01T20:13:38.378Z,2.08
2018-04-01T20:16:06.984Z,2.09
2018-04-01T20:18:35.638Z,1.99
2018-04-01T20:21:03.836Z,2.04
2018-04-01T20:23:32.387Z,2.03
2018-04-01T20:26:00.972Z,2.10
2018-04-01T20:28:29.475Z,2.14
2018-04-01T20:30:58.050Z,2.10
2018-04-01T20:33:26.628Z,2.13
2018-04-01T20:35:54.387Z,2.11
2018-04-01T20:38:22.891Z,2.20
2018-04-01T20:40:51.612Z,2.17
2018-04-01T20:43:20.552Z,2.11
2018-04-01T20:45:48.319Z,2.22
2018-04-01T20:48:16.804Z,2.11
2018-04-01T20:50:44.614Z,2.17
2018-04-01T20:53:12.276Z,2.23
2018-04-01T20:55:40.847Z,2.21
2018-04-01T20:58:09.348Z,2.22
2018-04-01T21:00:37.891Z,2.23
2018-04-01T21:03:05.540Z,2.28
2018-04-01T21:05:34.111Z,2.24
2018-04-01T21:08:02.796Z,2.32
2018-04-01T21:10:30.636Z,2.31
2018-04-01T21:12:58.401Z,2.39
2018-04-01T21:15:26.105Z,2.32
2018-04-01T21:17:53.723Z,2.27
2018-04-01T21:20:21.462Z,2.22
2018-04-01T21:22:49.112Z,2.32
2018-04-01T21:25:16.916Z,2.22
2018-04-01T21:27:44.559Z,2.34
2018-04-01T21:30:12.213Z,2.35
2018-04-01T21:32:39.970Z,2.39
2018-04-01T21:35:08.101Z,2.44
2018-04-01T21:37:35.891Z,2.34
2018-04-01T21:40:03.479Z,2.41
2018-04-01T21:42:31.070Z,2.42
2018-04-01T21:44:58.673Z,2.34
2018-04-01T21:47:26.271Z,2.46
2018-04-01T21:49:54.038Z,2.48
2018-04-01T21:52:21.627Z,2.46
2018-04-01T21:54:49.211Z,2.42
2018-04-01T21:57:16.812Z,2.41
2018-04-01T21:59:45.107Z,2.46
2018-04-01T22:02:12.732Z,2.47
2018-04-01T22:04:40.327Z,2.46
2018-04-01T22:07:07.918Z,2.53
2018-04-01T22:09:35.528Z,2.57
2018-04-01T22:12:03.149Z,2.56
2018-04-01T22:14:30.768Z,2.39
2018-04-01T22:16:58.348Z,2.35
2018-04-01T22:19:25.928Z,2.39
2018-04-01T22:21:53.515Z,2.32
2018-04-01T22:24:21.100Z,2.24
2018-04-01T22:26:48.702Z,2.25
2018-04-01T22:29:16.371Z,2.14
2018-04-01T22:31:43.963Z,2.13
2018-04-01T22:34:11.547Z,2.21
2018-04-01T22:36:39.126Z,2.19
2018-04-01T22:39:06.711Z,2.16
2018-04-01T22:41:34.298Z,2.19
2018-04-01T22:44:01.991Z,2.21
2018-04-01T22:46:29.638Z,2.19
2018-04-01T22:48:57.299Z,2.18
2018-04-01T22:51:24.885Z,2.12
2018-04-01T22:53:52.465Z,2.10
2018-04-01T22:56:20.056Z,2.15
2018-04-01T22:58:47.648Z,2.14
2018-04-01T23:01:15.353Z,2.23
2018-04-01T23:03:42.944Z,2.29
2018-04-01T23:06:10.567Z,2.19
2018-04-01T23:08:38.176Z,2.21
2018-04-01T23:11:05.752Z,2.22
2018-04-01T23:13:33.387Z,2.23
2018-04-01T23:16:00.971Z,2.19
2018-04-01T23:18:28.551Z,2.21
2018-04-01T23:20:56.130Z,2.21
2018-04-01T23:23:23.747Z,2.32
2018-04-01T23:25:52.032Z,2.32
2018-04-01T23:28:19.624Z,2.35
2018-04-01T23:30:47.220Z,2.38
2018-04-01T23:33:14.855Z,2.45
2018-04-01T23:35:42.441Z,2.42
2018-04-01T23:38:10.023Z,2.43
2018-04-01T23:40:38.215Z,2.39
2018-04-01T23:43:05.805Z,2.45
2018-04-01T23:45:33.399Z,2.33
2018-04-01T23:48:01.003Z,2.43
2018-04-01T23:50:28.609Z,2.40
2018-04-01T23:52:56.248Z,2.35
2018-04-01T23:55:23.912Z,2.37
2018-04-01T23:57:51.760Z,2.46
